Time;durP1;ratioP1;P1;durP2;ratioP2;P2;SDS_P1;SDS_P2;PMS_P1;PMS_P2;Temp;Humidity;BMP_temperature;BMP_pressure;BME280_temperature;BME280_humidity;BME280_pressure;Samples;Min_cycle;Max_cycle;Signal;HPM_P1;HPM_P2
2022/10/28 00:00:30;;;;;;;17.17;11.18;;;;;;;12.74;100.00;101753.84;5036746;28;20469;-76
2022/10/28 00:02:58;;;;;;;22.55;13.40;;;;;;;12.79;100.00;101754.44;5036537;28;20087;-77
2022/10/28 00:05:23;;;;;;;18.77;12.38;;;;;;;12.72;100.00;101757.47;5036368;28;20025;-71
2022/10/28 00:07:48;;;;;;;20.65;11.85;;;;;;;12.71;100.00;101756.63;5036503;28;20027;-76
2022/10/28 00:10:14;;;;;;;16.98;11.82;;;;;;;12.59;100.00;101737.44;5036298;28;20531;-74
2022/10/28 00:12:39;;;;;;;16.30;12.07;;;;;;;12.71;100.00;101755.78;5036475;28;20039;-76
2022/10/28 00:15:05;;;;;;;20.85;12.75;;;;;;;12.72;100.00;101749.69;5018581;28;20072;-70
2022/10/28 00:17:30;;;;;;;20.08;12.40;;;;;;;12.73;100.00;101748.75;5036433;28;20030;-73
2022/10/28 00:19:55;;;;;;;21.15;13.65;;;;;;;12.74;100.00;101751.25;5036256;28;20029;-72
2022/10/28 00:22:21;;;;;;;24.70;13.45;;;;;;;12.72;100.00;101750.53;5036190;28;20037;-72
2022/10/28 00:24:46;;;;;;;25.02;13.75;;;;;;;12.65;100.00;101746.59;5036171;28;20064;-75
2022/10/28 00:27:12;;;;;;;22.20;14.27;;;;;;;12.59;100.00;101734.84;5018002;28;20037;-73
2022/10/28 00:29:37;;;;;;;24.77;13.52;;;;;;;12.37;100.00;101716.22;5036040;28;20040;-72
2022/10/28 00:32:02;;;;;;;24.25;13.20;;;;;;;12.60;100.00;101748.63;5035911;28;20017;-71
2022/10/28 00:34:28;;;;;;;24.20;13.95;;;;;;;12.41;100.00;101729.88;5018241;28;20037;-73
2022/10/28 00:36:53;;;;;;;24.92;14.35;;;;;;;12.44;100.00;101742.63;5035747;28;20025;-73
2022/10/28 00:39:21;;;;;;;29.77;15.60;;;;;;;12.52;100.00;101748.22;5035677;28;20057;-74
2022/10/28 00:41:50;;;;;;;25.85;14.35;;;;;;;12.45;100.00;101746.91;5036034;28;20486;-72
2022/10/28 00:44:52;;;;;;;24.40;13.55;;;;;;;12.41;100.00;101738.47;5035643;28;20104;-71
2022/10/28 00:47:44;;;;;;;26.40;15.38;;;;;;;12.32;100.00;101715.69;5035651;28;20397;-73
2022/10/28 00:50:27;;;;;;;25.92;15.18;;;;;;;12.21;100.00;101705.91;5017627;28;20047;-72
2022/10/28 00:52:59;;;;;;;22.65;14.45;;;;;;;12.19;100.00;101707.75;5035655;28;20048;-72
2022/10/28 00:55:24;;;;;;;24.67;14.68;;;;;;;12.34;100.00;101732.78;5035875;28;20104;-71
2022/10/28 00:57:55;;;;;;;25.42;14.48;;;;;;;12.22;100.00;101715.34;5017587;28;20125;-72
2022/10/28 01:00:22;;;;;;;24.45;14.10;;;;;;;12.17;100.00;101704.41;5035442;28;20053;-72
2022/10/28 01:02:48;;;;;;;21.13;14.40;;;;;;;12.22;100.00;101717.94;5035487;28;20060;-73
2022/10/28 01:05:19;;;;;;;29.88;15.35;;;;;;;12.18;100.00;101713.84;5035601;28;20021;-71
2022/10/28 01:07:44;;;;;;;22.98;14.30;;;;;;;12.17;100.00;101713.94;5035375;28;20075;-73
2022/10/28 01:10:11;;;;;;;25.27;14.63;;;;;;;12.15;100.00;101708.84;5035229;28;20037;-74
2022/10/28 01:12:55;;;;;;;22.92;14.30;;;;;;;12.02;100.00;101689.72;5035353;28;20018;-73
2022/10/28 01:15:43;;;;;;;21.35;13.65;;;;;;;12.11;100.00;101703.94;5034961;28;20041;-71
2022/10/28 01:18:15;;;;;;;22.20;12.80;;;;;;;11.95;100.00;101686.63;5035292;28;20071;-71
2022/10/28 01:21:12;;;;;;;21.05;12.77;;;;;;;12.03;100.00;101694.00;5035065;28;20033;-72
2022/10/28 01:24:11;;;;;;;23.77;14.43;;;;;;;12.02;100.00;101705.25;5034956;28;20080;-73
2022/10/28 01:27:04;;;;;;;21.73;13.45;;;;;;;11.92;100.00;101701.50;5034982;28;20068;-74
2022/10/28 01:29:48;;;;;;;27.85;14.98;;;;;;;11.96;100.00;101715.94;5034778;28;20037;-71
2022/10/28 01:32:31;;;;;;;22.42;13.93;;;;;;;11.97;100.00;101708.09;5017069;28;20040;-72
2022/10/28 01:35:05;;;;;;;26.27;13.95;;;;;;;11.88;100.00;101702.59;5034862;28;20492;-72
2022/10/28 01:37:41;;;;;;;22.35;13.35;;;;;;;11.87;100.00;101696.56;5034636;28;20394;-71
2022/10/28 01:40:06;;;;;;;22.52;14.27;;;;;;;11.85;100.00;101693.25;5034696;28;20428;-71
2022/10/28 01:42:50;;;;;;;20.45;13.35;;;;;;;11.84;100.00;101695.91;5034536;28;20030;-71
2022/10/28 01:45:24;;;;;;;23.95;14.55;;;;;;;11.77;100.00;101698.78;5034835;28;20106;-74
2022/10/28 01:47:58;;;;;;;30.35;14.30;;;;;;;11.81;100.00;101690.91;5034632;28;20022;-71
2022/10/28 01:50:30;;;;;;;23.65;14.70;;;;;;;11.74;100.00;101701.56;5034655;28;20542;-73
2022/10/28 01:53:00;;;;;;;21.83;12.90;;;;;;;11.41;100.00;101643.88;5034399;28;20366;-71
2022/10/28 01:55:31;;;;;;;23.10;14.02;;;;;;;11.52;100.00;101661.41;5034460;28;20036;-71
2022/10/28 01:58:00;;;;;;;19.38;13.52;;;;;;;11.66;100.00;101706.28;5034222;28;20017;-71
2022/10/28 02:00:25;;;;;;;20.48;13.20;;;;;;;11.65;100.00;101696.88;5034442;28;20055;-71
2022/10/28 02:02:51;;;;;;;24.17;13.88;;;;;;;11.65;100.00;101694.28;5034405;28;20033;-71
2022/10/28 02:05:38;;;;;;;27.20;15.73;;;;;;;11.71;100.00;101691.38;5034470;28;20087;-71
2022/10/28 02:08:26;;;;;;;23.45;14.93;;;;;;;11.69;100.00;101690.59;5034225;28;20037;-71
2022/10/28 02:11:24;;;;;;;22.33;13.88;;;;;;;11.63;100.00;101683.19;5033969;28;20488;-71
2022/10/28 02:14:03;;;;;;;24.17;14.43;;;;;;;11.63;100.00;101692.69;5034207;28;20025;-71
2022/10/28 02:16:59;;;;;;;19.25;13.00;;;;;;;11.57;100.00;101691.25;5034273;28;20022;-71
2022/10/28 02:19:42;;;;;;;20.20;13.25;;;;;;;11.53;100.00;101689.78;5034234;28;20462;-71
2022/10/28 02:22:15;;;;;;;24.52;14.65;;;;;;;11.49;100.00;101693.41;5033766;28;20033;-72
2022/10/28 02:24:48;;;;;;;23.38;14.77;;;;;;;11.51;100.00;101694.19;5033550;28;20063;-73
2022/10/28 02:27:42;;;;;;;23.95;14.10;;;;;;;11.46;100.00;101696.19;5033954;28;20034;-72
2022/10/28 02:30:20;;;;;;;21.60;13.77;;;;;;;11.41;100.00;101690.44;5033898;28;20408;-72
2022/10/28 02:32:50;;;;;;;22.70;13.57;;;;;;;11.42;100.00;101687.75;5033790;28;20018;-72
2022/10/28 02:35:38;;;;;;;23.30;14.40;;;;;;;11.36;100.00;101688.06;5034024;28;20096;-71
2022/10/28 02:38:09;;;;;;;29.60;14.00;;;;;;;11.36;100.00;101682.06;5033379;28;20025;-71
2022/10/28 02:40:37;;;;;;;24.90;13.77;;;;;;;11.30;100.00;101688.38;5033555;28;20049;-71
2022/10/28 02:43:07;;;;;;;22.90;14.15;;;;;;;11.33;100.00;101677.06;5033620;28;20412;-72
2022/10/28 02:45:41;;;;;;;22.95;13.27;;;;;;;11.07;100.00;101645.63;5033613;28;20064;-71
2022/10/28 02:48:11;;;;;;;21.30;13.88;;;;;;;11.20;100.00;101676.84;5033685;28;20037;-73
2022/10/28 02:50:45;;;;;;;22.85;14.45;;;;;;;11.21;100.00;101678.53;5033532;28;20033;-68
2022/10/28 02:53:18;;;;;;;22.60;13.93;;;;;;;11.22;100.00;101684.53;5033213;28;20033;-71
2022/10/28 02:55:48;;;;;;;19.77;12.63;;;;;;;11.15;100.00;101678.84;5033496;28;20026;-71
2022/10/28 02:58:13;;;;;;;21.65;13.30;;;;;;;11.06;100.00;101667.22;5033433;28;20029;-70
2022/10/28 03:00:43;;;;;;;21.98;13.38;;;;;;;11.12;100.00;101684.19;5033590;28;20029;-72
2022/10/28 03:03:08;;;;;;;20.42;13.23;;;;;;;11.11;100.00;101679.91;5033376;28;20029;-72
2022/10/28 03:05:34;;;;;;;20.00;12.85;;;;;;;11.07;100.00;101676.66;5033504;28;20354;-72
2022/10/28 03:07:59;;;;;;;31.05;14.20;;;;;;;11.12;100.00;101672.09;5032128;28;20079;-71
2022/10/28 03:10:24;;;;;;;20.60;12.30;;;;;;;10.94;100.00;101649.78;5032892;28;20465;-73
2022/10/28 03:12:49;;;;;;;20.90;13.00;;;;;;;11.04;100.00;101671.66;5033051;28;20029;-72
2022/10/28 03:15:15;;;;;;;19.27;13.00;;;;;;;11.04;100.00;101665.66;5033261;28;20041;-73
2022/10/28 03:17:40;;;;;;;19.00;12.73;;;;;;;10.91;100.00;101658.53;5033398;28;20064;-72
2022/10/28 03:20:06;;;;;;;20.05;12.70;;;;;;;10.93;100.00;101665.38;5033022;28;20030;-72
2022/10/28 03:22:31;;;;;;;21.52;12.85;;;;;;;10.93;100.00;101673.94;5033206;28;20044;-73
2022/10/28 03:24:56;;;;;;;19.77;12.10;;;;;;;10.91;100.00;101671.44;5033014;28;20022;-72
2022/10/28 03:27:22;;;;;;;17.30;12.52;;;;;;;10.88;100.00;101671.59;5033088;28;20017;-72
2022/10/28 03:29:47;;;;;;;21.67;13.70;;;;;;;10.91;100.00;101670.59;5032771;28;20116;-72
2022/10/28 03:32:12;;;;;;;19.75;12.77;;;;;;;10.89;100.00;101664.66;5032977;28;20037;-73
2022/10/28 03:34:38;;;;;;;20.83;12.32;;;;;;;10.83;100.00;101665.81;5033007;28;20025;-72
2022/10/28 03:37:03;;;;;;;26.40;12.48;;;;;;;10.86;100.00;101670.81;5033097;28;20061;-71
2022/10/28 03:39:28;;;;;;;20.95;12.57;;;;;;;10.85;100.00;101661.41;5032675;28;20050;-76
2022/10/28 03:41:53;;;;;;;19.95;12.13;;;;;;;10.85;100.00;101668.31;5032882;28;20108;-77
2022/10/28 03:44:19;;;;;;;19.33;11.98;;;;;;;10.86;100.00;101660.50;5032938;28;20046;-77
2022/10/28 03:46:44;;;;;;;20.98;12.48;;;;;;;10.84;100.00;101657.16;5033164;28;20017;-77
2022/10/28 03:49:09;;;;;;;21.42;12.45;;;;;;;10.75;100.00;101649.03;5032796;28;20025;-77
2022/10/28 03:51:35;;;;;;;19.50;11.70;;;;;;;10.77;100.00;101662.72;5032886;28;20026;-77
2022/10/28 03:54:00;;;;;;;21.20;12.63;;;;;;;10.75;100.00;101657.63;5032813;28;20026;-77
2022/10/28 03:56:25;;;;;;;20.75;13.00;;;;;;;10.72;100.00;101655.19;5032891;28;20100;-77
2022/10/28 03:58:50;;;;;;;20.95;12.48;;;;;;;10.75;100.00;101657.63;5032814;28;20033;-77
2022/10/28 04:01:16;;;;;;;18.92;12.05;;;;;;;10.78;100.00;101656.63;5032928;28;20100;-77
2022/10/28 04:03:41;;;;;;;23.63;13.32;;;;;;;10.82;100.00;101666.75;5032646;28;20032;-77
2022/10/28 04:06:08;;;;;;;21.70;13.60;;;;;;;10.71;100.00;101642.34;5032818;28;20022;-73
2022/10/28 04:08:34;;;;;;;19.48;12.20;;;;;;;10.75;100.00;101655.03;5032602;28;20477;-77
2022/10/28 04:10:59;;;;;;;23.48;12.23;;;;;;;10.58;100.00;101635.22;5032457;28;20033;-76
2022/10/28 04:13:24;;;;;;;26.83;13.95;;;;;;;10.81;100.00;101669.38;5032720;28;20025;-77
2022/10/28 04:15:50;;;;;;;22.63;13.43;;;;;;;10.71;100.00;101653.50;5032561;28;20029;-77
2022/10/28 04:18:15;;;;;;;21.13;12.48;;;;;;;10.77;100.00;101666.13;5032444;28;20469;-77
2022/10/28 04:20:40;;;;;;;23.85;13.00;;;;;;;10.71;100.00;101645.75;5035745;28;20079;-76
2022/10/28 04:23:06;;;;;;;24.25;12.85;;;;;;;10.75;100.00;101665.38;5036262;28;20461;-74
2022/10/28 04:25:31;;;;;;;21.88;13.10;;;;;;;10.74;100.00;101668.88;5035906;28;20034;-76
2022/10/28 04:27:56;;;;;;;25.65;12.80;;;;;;;10.70;100.00;101661.34;5036198;28;20021;-75
2022/10/28 04:30:22;;;;;;;22.45;12.10;;;;;;;10.75;100.00;101667.13;5035892;28;20072;-71
2022/10/28 04:32:47;;;;;;;26.98;13.55;;;;;;;10.68;100.00;101661.41;5035916;28;20033;-75
2022/10/28 04:35:12;;;;;;;21.58;12.27;;;;;;;10.70;100.00;101666.50;5036122;28;20025;-75
2022/10/28 04:37:39;;;;;;;23.38;12.63;;;;;;;10.65;100.00;101663.34;5018299;28;20025;-72
2022/10/28 04:40:05;;;;;;;21.38;12.63;;;;;;;10.67;100.00;101664.91;5035649;28;20042;-72
2022/10/28 04:42:31;;;;;;;23.38;13.13;;;;;;;10.62;100.00;101661.75;5035907;28;20087;-72
2022/10/28 04:44:56;;;;;;;23.80;12.23;;;;;;;10.59;100.00;101665.28;5035753;28;20017;-76
2022/10/28 04:47:21;;;;;;;24.92;12.73;;;;;;;10.58;100.00;101670.53;5035764;28;20026;-76
2022/10/28 04:49:47;;;;;;;20.58;11.77;;;;;;;10.46;100.00;101647.91;5035725;28;20116;-71
2022/10/28 04:52:12;;;;;;;23.60;12.02;;;;;;;10.49;100.00;101647.75;5035784;28;20033;-72
2022/10/28 04:54:38;;;;;;;18.90;11.63;;;;;;;10.55;100.00;101660.38;5035636;28;20100;-75
2022/10/28 04:57:03;;;;;;;21.15;12.25;;;;;;;10.40;100.00;101645.63;5035424;28;20545;-71
2022/10/28 04:59:28;;;;;;;19.90;12.95;;;;;;;10.52;100.00;101657.91;5035463;28;20037;-72
2022/10/28 05:01:54;;;;;;;23.27;11.65;;;;;;;10.52;100.00;101668.25;5035666;28;20033;-72
2022/10/28 05:04:19;;;;;;;22.02;12.30;;;;;;;10.47;100.00;101652.16;5035222;28;20025;-71
2022/10/28 05:06:44;;;;;;;21.92;12.55;;;;;;;10.52;100.00;101661.38;5035629;28;20022;-72
2022/10/28 05:09:10;;;;;;;23.17;12.80;;;;;;;10.45;100.00;101657.41;5035448;28;20067;-70
2022/10/28 05:11:35;;;;;;;25.13;13.13;;;;;;;10.50;100.00;101654.56;5035281;28;20101;-72
2022/10/28 05:14:01;;;;;;;22.05;12.10;;;;;;;10.50;100.00;101660.56;5035308;28;20033;-72
2022/10/28 05:16:26;;;;;;;22.48;12.43;;;;;;;10.35;100.00;101640.69;5035307;28;20033;-72
2022/10/28 05:18:51;;;;;;;21.20;12.35;;;;;;;10.43;100.00;101658.41;5035003;28;20025;-71
2022/10/28 05:21:17;;;;;;;23.17;12.38;;;;;;;10.42;100.00;101660.16;5035324;28;20075;-71
2022/10/28 05:23:42;;;;;;;19.50;11.75;;;;;;;10.40;100.00;101661.09;5035164;28;20026;-71
2022/10/28 05:26:08;;;;;;;23.92;13.75;;;;;;;10.39;100.00;101660.28;5034981;28;20028;-71
2022/10/28 05:28:33;;;;;;;21.17;12.05;;;;;;;10.36;100.00;101657.00;5034922;28;20033;-76
2022/10/28 05:30:58;;;;;;;28.10;14.50;;;;;;;10.36;100.00;101642.34;5034025;28;20072;-75
2022/10/28 05:33:24;;;;;;;24.20;12.65;;;;;;;10.40;100.00;101643.03;5035045;28;20021;-70
2022/10/28 05:35:49;;;;;;;25.38;13.10;;;;;;;10.36;100.00;101642.34;5034866;28;20488;-75
2022/10/28 05:38:15;;;;;;;21.15;12.35;;;;;;;10.35;100.00;101645.84;5034895;28;20079;-76
2022/10/28 05:40:40;;;;;;;23.55;10.98;;;;;;;10.29;100.00;101646.13;5034352;28;20397;-73
2022/10/28 05:43:06;;;;;;;21.52;11.63;;;;;;;10.25;100.00;101636.88;5034634;28;20442;-71
2022/10/28 05:45:31;;;;;;;19.92;12.00;;;;;;;10.21;100.00;101632.72;5034646;28;20056;-76
2022/10/28 05:47:57;;;;;;;21.25;12.45;;;;;;;10.06;100.00;101611.94;5034671;28;20075;-73
2022/10/28 05:50:22;;;;;;;23.83;12.85;;;;;;;10.23;100.00;101647.28;5034401;28;20473;-75
2022/10/28 05:52:53;;;;;;;20.45;11.35;;;;;;;10.24;100.00;101656.72;5034622;28;20037;-72
2022/10/28 05:55:20;;;;;;;22.20;11.80;;;;;;;10.08;100.00;101632.50;5034623;28;20025;-71
2022/10/28 05:57:50;;;;;;;24.17;11.85;;;;;;;10.11;100.00;101642.66;5034367;28;20026;-72
2022/10/28 06:00:18;;;;;;;20.65;12.25;;;;;;;10.10;100.00;101638.41;5034450;28;20393;-71
2022/10/28 06:02:43;;;;;;;23.27;11.45;;;;;;;10.19;100.00;101644.88;5034398;28;20091;-72
2022/10/28 06:05:10;;;;;;;23.17;13.02;;;;;;;10.25;100.00;101642.88;5034289;28;20030;-71
2022/10/28 06:07:35;;;;;;;25.55;13.00;;;;;;;10.26;100.00;101651.47;5034310;28;20155;-72
2022/10/28 06:10:02;;;;;;;22.67;12.77;;;;;;;10.20;100.00;101649.13;5034214;28;20120;-71
2022/10/28 06:12:27;;;;;;;21.42;11.57;;;;;;;10.06;100.00;101648.06;5034116;28;20017;-73
2022/10/28 06:14:52;;;;;;;24.08;11.80;;;;;;;10.07;100.00;101633.41;5034235;28;20531;-70
2022/10/28 06:17:18;;;;;;;25.27;12.75;;;;;;;10.14;100.00;101655.44;5034105;28;20105;-73
2022/10/28 06:19:43;;;;;;;25.77;12.85;;;;;;;10.19;100.00;101655.22;5033937;28;20041;-74
2022/10/28 06:22:08;;;;;;;20.10;11.30;;;;;;;10.14;100.00;101655.44;5034217;28;20395;-71
2022/10/28 06:24:34;;;;;;;26.42;13.23;;;;;;;10.19;100.00;101663.78;5033844;28;20041;-74
2022/10/28 06:26:59;;;;;;;24.02;12.65;;;;;;;10.16;100.00;101658.78;5033722;28;20029;-75
2022/10/28 06:29:24;;;;;;;22.52;13.02;;;;;;;10.19;100.00;101652.63;5033870;28;20057;-71
2022/10/28 06:31:50;;;;;;;22.05;11.68;;;;;;;10.13;100.00;101652.91;5016368;28;20033;-72
2022/10/28 06:34:15;;;;;;;23.85;11.90;;;;;;;10.16;100.00;101652.78;5033801;28;20473;-73
2022/10/28 06:36:40;;;;;;;28.88;12.75;;;;;;;10.29;100.00;101661.63;5033488;28;20515;-74
2022/10/28 06:39:06;;;;;;;22.73;12.55;;;;;;;10.23;100.00;101641.28;5033831;28;20436;-72
2022/10/28 06:41:31;;;;;;;25.95;12.75;;;;;;;10.38;100.00;101663.78;5015830;28;20050;-71
2022/10/28 06:43:56;;;;;;;22.55;12.10;;;;;;;10.33;100.00;101655.44;5033510;28;20474;-77
2022/10/28 06:46:22;;;;;;;22.42;11.50;;;;;;;10.45;100.00;101665.16;5033555;28;20381;-72
2022/10/28 06:48:47;;;;;;;22.77;12.07;;;;;;;10.45;100.00;101664.31;5033551;28;20021;-71
2022/10/28 06:51:13;;;;;;;21.52;11.50;;;;;;;10.36;100.00;101650.09;5024015;28;20105;-68
2022/10/28 06:53:38;;;;;;;23.05;12.00;;;;;;;10.57;100.00;101656.78;5033495;28;20025;-73
2022/10/28 06:56:04;;;;;;;27.85;12.90;;;;;;;10.60;100.00;101655.78;5033423;28;20036;-69
2022/10/28 06:58:29;;;;;;;21.08;12.38;;;;;;;10.50;100.00;101634.75;5040580;22;20057;-70
2022/10/28 07:00:55;;;;;;;21.42;11.75;;;;;;;10.46;100.00;101622.09;5033239;28;20119;-71
2022/10/28 07:03:20;;;;;;;22.90;11.65;;;;;;;10.63;100.00;101645.34;5033405;28;20351;-73
2022/10/28 07:05:50;;;;;;;29.20;13.10;;;;;;;10.74;100.00;101660.28;5033027;28;20052;-71
2022/10/28 07:08:16;;;;;;;21.70;11.25;;;;;;;10.83;100.00;101667.56;5033282;28;20105;-73
2022/10/28 07:10:41;;;;;;;24.73;12.05;;;;;;;10.92;100.00;101672.28;5033070;28;20600;-73
2022/10/28 07:13:07;;;;;;;22.42;11.68;;;;;;;10.90;100.00;101654.25;5032930;28;20053;-72
2022/10/28 07:15:32;;;;;;;28.20;13.30;;;;;;;11.11;100.00;101665.25;5033044;28;20030;-71
2022/10/28 07:17:58;;;;;;;26.65;13.70;;;;;;;11.12;100.00;101659.16;5033256;28;20473;-70
2022/10/28 07:20:25;;;;;;;25.35;13.00;;;;;;;11.23;100.00;101658.59;5033072;28;20354;-74
2022/10/28 07:22:56;;;;;;;24.15;12.85;;;;;;;11.30;100.00;101659.09;5032883;28;20508;-73
2022/10/28 07:25:22;;;;;;;27.17;12.98;;;;;;;11.43;100.00;101663.56;5033019;28;20087;-74
2022/10/28 07:27:47;;;;;;;30.52;14.05;;;;;;;11.57;100.00;101670.56;5032985;28;20030;-74
2022/10/28 07:30:13;;;;;;;25.50;13.25;;;;;;;11.73;100.00;101665.41;5032826;28;20548;-75
2022/10/28 07:32:38;;;;;;;28.52;13.20;;;;;;;11.87;100.00;101670.69;5033099;28;20044;-74
2022/10/28 07:35:03;;;;;;;27.75;12.25;;;;;;;12.01;100.00;101669.94;5032865;28;20018;-83
2022/10/28 07:37:29;;;;;;;25.20;12.43;;;;;;;12.14;100.00;101678.69;5032716;28;20429;-74
2022/10/28 07:39:54;;;;;;;24.55;12.20;;;;;;;12.28;100.00;101680.50;5032793;28;20744;-75
2022/10/28 07:42:19;;;;;;;25.63;13.05;;;;;;;12.36;100.00;101657.59;5032682;28;20029;-75
2022/10/28 07:44:45;;;;;;;25.08;12.68;;;;;;;12.54;100.00;101663.47;5014443;28;20037;-81
2022/10/28 07:47:10;;;;;;;25.90;11.75;;;;;;;12.71;100.00;101670.28;5014363;28;20112;-74
2022/10/28 07:49:35;;;;;;;22.17;11.73;;;;;;;12.88;100.00;101668.38;5032739;28;20495;-75
2022/10/28 07:52:01;;;;;;;24.15;11.80;;;;;;;13.02;100.00;101662.34;5032672;28;20036;-74
2022/10/28 07:54:27;;;;;;;28.33;12.55;;;;;;;13.06;100.00;101656.03;5033883;28;20037;-75
2022/10/28 07:56:53;;;;;;;28.23;12.35;;;;;;;13.27;100.00;101666.91;5036758;28;20529;-75
2022/10/28 07:59:19;;;;;;;25.85;12.40;;;;;;;13.43;100.00;101659.03;5036318;28;20050;-75
2022/10/28 08:01:45;;;;;;;28.52;11.05;;;;;;;13.51;100.00;101650.78;5036406;28;20025;-75
2022/10/28 08:04:10;;;;;;;25.30;12.60;;;;;;;13.65;100.00;101648.13;5036591;28;20040;-75
2022/10/28 08:06:36;;;;;;;22.90;11.77;;;;;;;13.72;100.00;101655.44;5036481;28;20108;-74
2022/10/28 08:09:02;;;;;;;27.08;12.57;;;;;;;13.74;100.00;101643.22;5036335;28;20179;-75
2022/10/28 08:11:27;;;;;;;26.58;11.90;;;;;;;13.93;100.00;101665.41;5036577;28;20080;-74
2022/10/28 08:13:54;;;;;;;29.00;12.63;;;;;;;13.92;100.00;101643.81;5034691;28;20044;-73
2022/10/28 08:16:19;;;;;;;22.33;12.05;;;;;;;14.10;100.00;101656.53;5036409;28;20436;-74
2022/10/28 08:18:45;;;;;;;26.88;11.75;;;;;;;14.23;100.00;101657.41;5036553;28;20022;-79
2022/10/28 08:21:11;;;;;;;22.88;11.73;;;;;;;14.33;100.00;101668.88;5036372;28;20028;-75
2022/10/28 08:23:37;;;;;;;26.17;11.77;;;;;;;14.40;100.00;101671.91;5036509;28;20121;-84
2022/10/28 08:26:03;;;;;;;30.42;12.98;;;;;;;14.26;100.00;101639.88;5036072;28;20112;-84
2022/10/28 08:28:28;;;;;;;25.27;12.57;;;;;;;14.52;100.00;101673.72;5036358;28;20042;-85
2022/10/28 08:31:02;;;;;;;28.05;11.68;;;;;;;14.58;100.00;101674.16;5035932;28;20370;-87
2022/10/28 08:33:31;;;;;;;22.67;12.00;;;;;;;14.69;100.00;101683.00;5036233;28;20064;-80
2022/10/28 08:35:56;;;;;;;26.88;11.45;;;;;;;14.71;100.00;101681.97;5035804;28;20052;-80
2022/10/28 08:38:22;;;;;;;26.02;11.77;;;;;;;14.75;100.00;101677.38;5035780;28;20049;-83
2022/10/28 08:41:00;;;;;;;30.52;12.23;;;;;;;14.81;100.00;101682.19;5035847;28;20119;-85
2022/10/28 08:43:59;;;;;;;32.85;11.38;;;;;;;14.86;100.00;101682.72;5035766;28;20030;-84
2022/10/28 08:46:43;;;;;;;25.80;11.65;;;;;;;14.95;100.00;101687.31;5035640;28;20477;-81
2022/10/28 08:49:13;;;;;;;25.20;11.23;;;;;;;15.06;100.00;101682.19;5035776;28;20036;-75
2022/10/28 08:51:45;;;;;;;20.60;10.73;;;;;;;15.16;100.00;101669.41;5035632;28;20035;-85
2022/10/28 08:54:19;;;;;;;27.80;11.57;;;;;;;15.31;100.00;101677.91;5035668;28;20029;-75
2022/10/28 08:56:47;;;;;;;27.15;11.38;;;;;;;15.40;100.00;101659.88;5035513;28;20030;-85
2022/10/28 08:59:20;;;;;;;25.02;11.60;;;;;;;15.60;100.00;101674.13;5034912;28;20421;-76
2022/10/28 09:02:03;;;;;;;28.92;11.35;;;;;;;15.66;100.00;101655.47;5035316;28;20462;-82
2022/10/28 09:04:38;;;;;;;23.23;10.27;;;;;;;15.89;100.00;101659.03;5035643;28;20021;-85
2022/10/28 09:07:07;;;;;;;19.77;9.82;;;;;;;15.99;100.00;101667.00;5035415;28;20137;-75
2022/10/28 09:09:32;;;;;;;24.70;10.80;;;;;;;16.07;100.00;101664.69;5035272;28;20037;-74
2022/10/28 09:12:07;;;;;;;23.67;10.07;;;;;;;16.27;100.00;101684.91;5035072;28;20026;-74
2022/10/28 09:15:14;;;;;;;22.27;10.00;;;;;;;16.40;100.00;101670.97;5035150;28;20475;-75
2022/10/28 09:18:13;;;;;;;24.60;10.05;;;;;;;16.49;100.00;101680.72;4974326;28;20089;-75
2022/10/28 09:20:55;;;;;;;22.50;9.88;;;;;;;16.59;100.00;101682.50;4974375;28;20047;-82
2022/10/28 09:23:34;;;;;;;25.48;9.60;;;;;;;16.66;100.00;101682.91;4974257;28;20038;-75
2022/10/28 09:26:36;;;;;;;20.77;8.48;;;;;;;16.90;100.00;101686.28;4974301;28;20023;-83
2022/10/28 09:29:04;;;;;;;22.60;9.00;;;;;;;17.10;100.00;101686.53;4969433;28;20530;-74
2022/10/28 09:31:35;;;;;;;27.27;9.70;;;;;;;17.29;99.70;101689.41;4973956;28;20038;-72
2022/10/28 09:34:10;;;;;;;;;;;;;;;17.39;100.00;101679.91;4974518;28;20193;-77
2022/10/28 09:36:41;;;;;;;19.58;8.70;;;;;;;17.46;97.95;101686.31;4974144;28;20027;-81
2022/10/28 09:39:14;;;;;;;24.73;9.30;;;;;;;17.43;96.48;101670.88;4974007;28;20479;-79
2022/10/28 09:41:42;;;;;;;24.02;8.90;;;;;;;17.60;96.23;101697.44;4973970;28;20129;-75
2022/10/28 09:44:32;;;;;;;24.83;8.50;;;;;;;17.60;97.51;101697.44;4974038;28;20037;-74
2022/10/28 09:47:00;;;;;;;19.35;8.32;;;;;;;17.64;95.18;101694.47;4973729;28;20432;-80
2022/10/28 09:49:35;;;;;;;19.73;8.40;;;;;;;17.63;95.64;101682.38;4973797;28;20045;-79
2022/10/28 09:52:10;;;;;;;22.48;8.95;;;;;;;17.76;95.24;101685.69;4973655;28;20522;-76
2022/10/28 09:54:43;;;;;;;28.42;9.63;;;;;;;17.87;93.94;101686.63;5002106;28;20160;-75
2022/10/28 09:57:08;;;;;;;24.33;8.45;;;;;;;17.82;92.89;101657.44;5034506;28;20029;-86
2022/10/28 09:59:34;;;;;;;19.60;8.20;;;;;;;17.91;93.57;101678.44;5034209;28;20128;-77
2022/10/28 10:02:02;;;;;;;22.27;8.57;;;;;;;18.10;92.09;101698.69;5034105;28;20041;-82
2022/10/28 10:04:30;;;;;;;25.23;8.05;;;;;;;18.05;90.03;101679.91;5015853;28;20044;-77
2022/10/28 10:07:01;;;;;;;22.27;7.82;;;;;;;18.10;90.02;101672.53;5034272;28;20029;-78
2022/10/28 10:09:28;;;;;;;;;;;;;;;18.21;92.28;101693.41;5034574;28;20025;-77
2022/10/28 10:11:59;;;;;;;25.85;8.88;;;;;;;18.34;88.91;101688.00;5034377;28;19936;-80
2022/10/28 10:14:29;;;;;;;21.15;8.63;;;;;;;18.37;88.86;101682.50;5017099;28;20096;-85
2022/10/28 10:17:04;;;;;;;27.40;8.27;;;;;;;18.21;88.35;101655.97;5033619;28;20441;-87
2022/10/28 10:20:09;;;;;;;27.02;8.20;;;;;;;18.21;90.39;101659.44;5034037;28;20029;-80
2022/10/28 10:22:42;;;;;;;20.98;7.97;;;;;;;18.47;88.41;101688.63;5034420;28;20136;-82
2022/10/28 10:25:20;;;;;;;24.70;8.65;;;;;;;18.56;88.15;101687.06;5033852;28;20033;-73
2022/10/28 10:28:14;;;;;;;23.77;8.27;;;;;;;18.57;88.28;101671.22;5033753;28;20478;-75
2022/10/28 10:30:51;;;;;;;22.20;8.20;;;;;;;18.78;86.05;101679.13;5033861;28;20036;-76
2022/10/28 10:33:21;;;;;;;23.85;8.02;;;;;;;18.89;85.77;101686.06;5034076;28;20036;-85
2022/10/28 10:36:03;;;;;;;21.80;7.63;;;;;;;18.91;84.71;101687.59;5033653;28;20545;-83
2022/10/28 10:38:30;;;;;;;29.40;8.00;;;;;;;18.94;82.82;101681.25;5033807;28;20026;-76
2022/10/28 10:40:55;;;;;;;23.02;7.90;;;;;;;19.01;82.88;101682.41;5034223;28;20033;-75
2022/10/28 10:43:28;;;;;;;21.20;7.85;;;;;;;19.00;82.76;101670.28;5033739;28;20040;-77
2022/10/28 10:46:15;;;;;;;24.88;7.70;;;;;;;19.10;84.03;101678.19;5033626;28;20116;-77
2022/10/28 10:48:41;;;;;;;24.58;7.70;;;;;;;19.18;81.36;101670.50;5033491;28;20029;-77
2022/10/28 10:51:26;;;;;;;17.42;6.97;;;;;;;19.29;81.96;101654.69;5033593;28;20060;-77
2022/10/28 10:53:55;;;;;;;22.20;7.10;;;;;;;19.42;79.23;101654.44;5033394;28;20025;-75
2022/10/28 10:56:27;;;;;;;23.27;7.75;;;;;;;19.50;79.51;101657.22;5033620;28;20021;-76
2022/10/28 10:58:55;;;;;;;21.77;7.05;;;;;;;19.57;79.95;101674.09;5033012;28;20049;-92
2022/10/28 11:01:23;;;;;;;21.92;7.55;;;;;;;19.63;78.78;101662.25;5032964;28;20130;-75
2022/10/28 11:03:59;;;;;;;19.95;6.75;;;;;;;19.75;78.10;101664.59;5033215;28;20037;-74
2022/10/28 11:06:37;;;;;;;26.08;7.07;;;;;;;19.89;79.19;101673.88;5033041;28;20026;-74
2022/10/28 11:09:06;;;;;;;27.65;7.22;;;;;;;20.03;77.11;101668.22;5033107;28;20029;-74
2022/10/28 11:11:39;;;;;;;20.88;7.35;;;;;;;19.99;77.48;101645.03;5033504;28;20030;-75
2022/10/28 11:14:08;;;;;;;26.92;7.43;;;;;;;20.21;74.72;101654.41;5032997;28;20037;-75
2022/10/28 11:16:57;;;;;;;19.58;6.05;;;;;;;20.31;75.21;101652.59;5032861;28;20021;-75